sensor_id;sensor_type;location;lat;lon;timestamp;pressure;altitude;pressure_sealevel;temperature;humidity
48555;BME280;34336;48.270;16.716;2022-10-31T00:00:23;76690.47;;;18.16;95.14
48555;BME280;34336;48.270;16.716;2022-10-31T00:02:50;76686.59;;;18.16;95.20
48555;BME280;34336;48.270;16.716;2022-10-31T00:05:18;76694.31;;;18.16;95.26
48555;BME280;34336;48.270;16.716;2022-10-31T00:07:46;76692.38;;;18.16;95.15
48555;BME280;34336;48.270;16.716;2022-10-31T00:10:13;76690.47;;;18.16;95.26
48555;BME280;34336;48.270;16.716;2022-10-31T00:12:40;76686.59;;;18.16;95.38
48555;BME280;34336;48.270;16.716;2022-10-31T00:15:07;76686.59;;;18.16;95.44
48555;BME280;34336;48.270;16.716;2022-10-31T00:17:35;76690.47;;;18.16;95.52
48555;BME280;34336;48.270;16.716;2022-10-31T00:20:02;76690.47;;;18.16;95.31
48555;BME280;34336;48.270;16.716;2022-10-31T00:22:32;76690.47;;;18.16;95.54
48555;BME280;34336;48.270;16.716;2022-10-31T00:24:59;76686.59;;;18.16;95.49
48555;BME280;34336;48.270;16.716;2022-10-31T00:27:26;76688.53;;;18.16;95.61
48555;BME280;34336;48.270;16.716;2022-10-31T00:29:53;76684.69;;;18.16;95.54
48555;BME280;34336;48.270;16.716;2022-10-31T00:32:20;76686.59;;;18.16;95.73
48555;BME280;34336;48.270;16.716;2022-10-31T00:34:47;76678.91;;;18.16;95.56
48555;BME280;34336;48.270;16.716;2022-10-31T00:37:14;76694.31;;;18.16;95.62
48555;BME280;34336;48.270;16.716;2022-10-31T00:39:45;76694.31;;;18.16;95.84
48555;BME280;34336;48.270;16.716;2022-10-31T00:42:14;76698.16;;;18.16;95.88
48555;BME280;34336;48.270;16.716;2022-10-31T00:44:43;76696.25;;;18.16;95.86
48555;BME280;34336;48.270;16.716;2022-10-31T00:47:10;76690.47;;;18.16;95.86
48555;BME280;34336;48.270;16.716;2022-10-31T00:49:37;76684.69;;;18.16;95.70
48555;BME280;34336;48.270;16.716;2022-10-31T00:52:04;76684.69;;;18.16;95.73
48555;BME280;34336;48.270;16.716;2022-10-31T00:54:31;76684.69;;;18.16;95.81
48555;BME280;34336;48.270;16.716;2022-10-31T00:56:58;76686.59;;;18.16;95.83
48555;BME280;34336;48.270;16.716;2022-10-31T00:59:25;76686.59;;;18.16;95.78
48555;BME280;34336;48.270;16.716;2022-10-31T01:01:52;76690.47;;;18.16;95.94
48555;BME280;34336;48.270;16.716;2022-10-31T01:04:20;76686.59;;;18.16;96.01
48555;BME280;34336;48.270;16.716;2022-10-31T01:06:48;76682.75;;;18.16;95.95
48555;BME280;34336;48.270;16.716;2022-10-31T01:09:15;76682.75;;;18.16;95.80
48555;BME280;34336;48.270;16.716;2022-10-31T01:11:45;76690.47;;;18.16;95.80
48555;BME280;34336;48.270;16.716;2022-10-31T01:14:13;76684.69;;;18.16;95.92
48555;BME280;34336;48.270;16.716;2022-10-31T01:16:39;76678.91;;;18.16;96.10
48555;BME280;34336;48.270;16.716;2022-10-31T01:19:06;76675.03;;;18.16;95.96
48555;BME280;34336;48.270;16.716;2022-10-31T01:21:33;76678.91;;;18.16;96.02
48555;BME280;34336;48.270;16.716;2022-10-31T01:24:01;76684.69;;;18.16;95.77
48555;BME280;34336;48.270;16.716;2022-10-31T01:26:29;76684.69;;;18.16;95.71
48555;BME280;34336;48.270;16.716;2022-10-31T01:29:00;76682.75;;;18.16;96.02
48555;BME280;34336;48.270;16.716;2022-10-31T01:31:31;76694.31;;;18.16;95.73
48555;BME280;34336;48.270;16.716;2022-10-31T01:34:04;76692.38;;;18.16;95.96
48555;BME280;34336;48.270;16.716;2022-10-31T01:36:33;76688.53;;;18.16;95.54
48555;BME280;34336;48.270;16.716;2022-10-31T01:39:01;76686.59;;;18.16;95.83
48555;BME280;34336;48.270;16.716;2022-10-31T01:41:29;76686.59;;;18.16;95.75
48555;BME280;34336;48.270;16.716;2022-10-31T01:49:33;76686.59;;;18.16;95.64
48555;BME280;34336;48.270;16.716;2022-10-31T01:52:05;76692.38;;;18.16;95.62
48555;BME280;34336;48.270;16.716;2022-10-31T01:54:34;76688.53;;;18.16;95.75
48555;BME280;34336;48.270;16.716;2022-10-31T01:57:03;76682.75;;;18.16;95.57
48555;BME280;34336;48.270;16.716;2022-10-31T01:59:32;76686.59;;;18.16;95.54
48555;BME280;34336;48.270;16.716;2022-10-31T02:02:04;76684.69;;;18.16;95.62
48555;BME280;34336;48.270;16.716;2022-10-31T02:04:32;76678.91;;;18.16;95.62
48555;BME280;34336;48.270;16.716;2022-10-31T02:07:09;76682.75;;;18.16;95.54
48555;BME280;34336;48.270;16.716;2022-10-31T02:09:37;76684.69;;;18.16;95.61
48555;BME280;34336;48.270;16.716;2022-10-31T02:12:04;76686.59;;;18.16;95.75
48555;BME280;34336;48.270;16.716;2022-10-31T02:14:31;76686.59;;;18.16;95.64
48555;BME280;34336;48.270;16.716;2022-10-31T02:16:58;76682.75;;;18.16;95.73
48555;BME280;34336;48.270;16.716;2022-10-31T02:25:32;76686.59;;;18.16;95.65
48555;BME280;34336;48.270;16.716;2022-10-31T02:28:29;76686.59;;;18.16;95.65
48555;BME280;34336;48.270;16.716;2022-10-31T02:33:53;76688.53;;;18.16;95.33
48555;BME280;34336;48.270;16.716;2022-10-31T02:36:24;76684.69;;;18.16;95.52
48555;BME280;34336;48.270;16.716;2022-10-31T02:39:02;76686.59;;;18.16;95.39
48555;BME280;34336;48.270;16.716;2022-10-31T02:41:44;76686.59;;;18.16;95.48
48555;BME280;34336;48.270;16.716;2022-10-31T02:49:21;76698.16;;;18.16;95.42
48555;BME280;34336;48.270;16.716;2022-10-31T02:51:51;76700.09;;;18.16;95.52
48555;BME280;34336;48.270;16.716;2022-10-31T02:54:21;76702.03;;;18.16;95.47
48555;BME280;34336;48.270;16.716;2022-10-31T02:56:54;76702.03;;;18.16;95.20
48555;BME280;34336;48.270;16.716;2022-10-31T02:59:22;76698.16;;;18.16;95.22
48555;BME280;34336;48.270;16.716;2022-10-31T03:04:31;76702.03;;;18.16;95.39
48555;BME280;34336;48.270;16.716;2022-10-31T03:07:18;76702.03;;;18.16;95.33
48555;BME280;34336;48.270;16.716;2022-10-31T03:10:04;76698.16;;;18.16;95.27
48555;BME280;34336;48.270;16.716;2022-10-31T03:12:35;76692.38;;;18.16;95.23
48555;BME280;34336;48.270;16.716;2022-10-31T03:15:14;76694.31;;;18.16;95.28
48555;BME280;34336;48.270;16.716;2022-10-31T03:20:14;76698.16;;;18.16;95.16
48555;BME280;34336;48.270;16.716;2022-10-31T03:22:42;76702.03;;;18.16;95.33
48555;BME280;34336;48.270;16.716;2022-10-31T03:25:10;76705.88;;;18.16;95.08
48555;BME280;34336;48.270;16.716;2022-10-31T03:27:39;76705.88;;;18.16;95.21
48555;BME280;34336;48.270;16.716;2022-10-31T03:30:08;76703.94;;;18.16;95.17
48555;BME280;34336;48.270;16.716;2022-10-31T03:32:51;76705.88;;;18.16;95.04
48555;BME280;34336;48.270;16.716;2022-10-31T03:35:22;76709.72;;;18.16;95.04
48555;BME280;34336;48.270;16.716;2022-10-31T03:37:51;76707.81;;;18.16;94.96
48555;BME280;34336;48.270;16.716;2022-10-31T03:40:19;76709.72;;;18.16;95.07
48555;BME280;34336;48.270;16.716;2022-10-31T03:42:50;76709.72;;;18.16;94.97
48555;BME280;34336;48.270;16.716;2022-10-31T03:45:22;76717.44;;;18.16;94.88
48555;BME280;34336;48.270;16.716;2022-10-31T03:47:51;76717.44;;;18.16;94.86
48555;BME280;34336;48.270;16.716;2022-10-31T03:50:19;76713.59;;;18.16;95.17
48555;BME280;34336;48.270;16.716;2022-10-31T03:52:58;76715.50;;;18.16;94.93
48555;BME280;34336;48.270;16.716;2022-10-31T03:55:46;76717.44;;;18.16;95.03
48555;BME280;34336;48.270;16.716;2022-10-31T03:58:24;76721.28;;;18.16;95.01
48555;BME280;34336;48.270;16.716;2022-10-31T04:00:54;76719.38;;;18.16;94.84
48555;BME280;34336;48.270;16.716;2022-10-31T04:03:24;76721.28;;;18.16;94.93
48555;BME280;34336;48.270;16.716;2022-10-31T04:05:55;76725.16;;;18.16;94.75
48555;BME280;34336;48.270;16.716;2022-10-31T04:08:24;76721.28;;;18.16;94.78
48555;BME280;34336;48.270;16.716;2022-10-31T04:10:54;76717.44;;;18.16;94.99
48555;BME280;34336;48.270;16.716;2022-10-31T04:13:27;76717.44;;;18.16;94.72
48555;BME280;34336;48.270;16.716;2022-10-31T04:16:01;76725.16;;;18.16;94.84
48555;BME280;34336;48.270;16.716;2022-10-31T04:18:28;76721.28;;;18.16;94.85
48555;BME280;34336;48.270;16.716;2022-10-31T04:21:05;76725.16;;;18.16;94.71
48555;BME280;34336;48.270;16.716;2022-10-31T04:23:33;76729.00;;;18.16;94.88
48555;BME280;34336;48.270;16.716;2022-10-31T04:26:08;76729.00;;;18.16;94.86
48555;BME280;34336;48.270;16.716;2022-10-31T04:28:37;76727.06;;;18.16;94.71
48555;BME280;34336;48.270;16.716;2022-10-31T04:31:04;76732.84;;;18.16;94.86
48555;BME280;34336;48.270;16.716;2022-10-31T04:33:35;76725.16;;;18.16;94.71
48555;BME280;34336;48.270;16.716;2022-10-31T04:40:13;76732.84;;;18.16;94.76
48555;BME280;34336;48.270;16.716;2022-10-31T04:48:26;76736.72;;;18.16;94.40
48555;BME280;34336;48.270;16.716;2022-10-31T04:51:01;76746.34;;;18.16;94.58
48555;BME280;34336;48.270;16.716;2022-10-31T04:53:28;76752.13;;;18.16;94.45
48555;BME280;34336;48.270;16.716;2022-10-31T04:56:15;76752.13;;;18.16;94.52
48555;BME280;34336;48.270;16.716;2022-10-31T04:58:45;76752.13;;;18.16;94.70
48555;BME280;34336;48.270;16.716;2022-10-31T05:01:15;76750.19;;;18.16;94.75
48555;BME280;34336;48.270;16.716;2022-10-31T05:03:44;76752.13;;;18.16;94.51
48555;BME280;34336;48.270;16.716;2022-10-31T05:06:10;76752.13;;;18.16;94.67
48555;BME280;34336;48.270;16.716;2022-10-31T05:08:40;76750.19;;;18.16;94.39
48555;BME280;34336;48.270;16.716;2022-10-31T05:11:08;76755.97;;;18.16;94.41
48555;BME280;34336;48.270;16.716;2022-10-31T05:13:36;76761.75;;;18.16;94.24
48555;BME280;34336;48.270;16.716;2022-10-31T05:16:11;76763.69;;;18.16;94.33
48555;BME280;34336;48.270;16.716;2022-10-31T05:18:57;76763.69;;;18.16;94.29
48555;BME280;34336;48.270;16.716;2022-10-31T05:21:43;76761.75;;;18.16;94.38
48555;BME280;34336;48.270;16.716;2022-10-31T05:24:10;76761.75;;;18.16;94.72
48555;BME280;34336;48.270;16.716;2022-10-31T05:26:39;76761.75;;;18.16;94.51
48555;BME280;34336;48.270;16.716;2022-10-31T05:29:06;76754.06;;;18.16;94.65
48555;BME280;34336;48.270;16.716;2022-10-31T05:31:36;76761.75;;;18.16;94.67
48555;BME280;34336;48.270;16.716;2022-10-31T05:34:05;76752.13;;;18.16;94.72
48555;BME280;34336;48.270;16.716;2022-10-31T05:37:00;76759.84;;;18.16;94.59
48555;BME280;34336;48.270;16.716;2022-10-31T05:39:27;76757.91;;;18.16;94.75
48555;BME280;34336;48.270;16.716;2022-10-31T05:41:59;76767.53;;;18.16;94.74
48555;BME280;34336;48.270;16.716;2022-10-31T05:44:26;76769.47;;;18.16;94.76
48555;BME280;34336;48.270;16.716;2022-10-31T05:47:06;76771.41;;;18.16;94.98
48555;BME280;34336;48.270;16.716;2022-10-31T05:49:36;76765.63;;;18.16;95.01
48555;BME280;34336;48.270;16.716;2022-10-31T05:52:21;76767.53;;;18.16;94.88
48555;BME280;34336;48.270;16.716;2022-10-31T05:54:56;76763.69;;;18.16;94.72
48555;BME280;34336;48.270;16.716;2022-10-31T05:57:23;76767.53;;;18.16;94.78
48555;BME280;34336;48.270;16.716;2022-10-31T05:59:51;76769.47;;;18.16;94.81
48555;BME280;34336;48.270;16.716;2022-10-31T06:02:22;76771.41;;;18.16;94.87
48555;BME280;34336;48.270;16.716;2022-10-31T06:05:24;76777.19;;;18.16;94.92
48555;BME280;34336;48.270;16.716;2022-10-31T06:07:51;76775.25;;;18.16;94.86
48555;BME280;34336;48.270;16.716;2022-10-31T06:10:19;76775.25;;;18.16;94.99
48555;BME280;34336;48.270;16.716;2022-10-31T06:12:51;76779.09;;;18.16;94.94
48555;BME280;34336;48.270;16.716;2022-10-31T06:15:22;76782.97;;;18.16;94.97
48555;BME280;34336;48.270;16.716;2022-10-31T06:17:58;76790.66;;;18.16;94.86
48555;BME280;34336;48.270;16.716;2022-10-31T06:20:26;76792.59;;;18.16;94.89
48555;BME280;34336;48.270;16.716;2022-10-31T06:23:01;76794.53;;;18.16;95.06
48555;BME280;34336;48.270;16.716;2022-10-31T06:25:30;76802.22;;;18.16;94.88
48555;BME280;34336;48.270;16.716;2022-10-31T06:27:57;76800.31;;;18.16;95.06
48555;BME280;34336;48.270;16.716;2022-10-31T06:30:31;76808.00;;;18.16;95.05
48555;BME280;34336;48.270;16.716;2022-10-31T06:33:02;76802.22;;;18.16;95.11
48555;BME280;34336;48.270;16.716;2022-10-31T06:35:29;76806.09;;;18.16;95.01
48555;BME280;34336;48.270;16.716;2022-10-31T06:37:56;76806.09;;;18.16;94.99
48555;BME280;34336;48.270;16.716;2022-10-31T06:40:35;76806.09;;;18.16;95.20
48555;BME280;34336;48.270;16.716;2022-10-31T06:43:15;76802.22;;;18.16;95.25
48555;BME280;34336;48.270;16.716;2022-10-31T06:45:42;76800.31;;;18.16;95.10
48555;BME280;34336;48.270;16.716;2022-10-31T06:48:30;76802.22;;;18.16;95.13
48555;BME280;34336;48.270;16.716;2022-10-31T06:51:14;76802.22;;;18.16;95.24
48555;BME280;34336;48.270;16.716;2022-10-31T06:53:41;76806.09;;;18.16;95.18
48555;BME280;34336;48.270;16.716;2022-10-31T06:56:10;76808.00;;;18.16;95.17
48555;BME280;34336;48.270;16.716;2022-10-31T06:58:42;76806.09;;;18.16;95.21
48555;BME280;34336;48.270;16.716;2022-10-31T07:01:10;76794.53;;;18.16;95.17
48555;BME280;34336;48.270;16.716;2022-10-31T07:03:38;76794.53;;;18.16;95.04
48555;BME280;34336;48.270;16.716;2022-10-31T07:06:06;76794.53;;;18.16;95.01
48555;BME280;34336;48.270;16.716;2022-10-31T07:08:33;76806.09;;;18.16;95.01
48555;BME280;34336;48.270;16.716;2022-10-31T07:11:00;76794.53;;;18.16;95.07
48555;BME280;34336;48.270;16.716;2022-10-31T07:13:28;76798.38;;;18.16;94.88
48555;BME280;34336;48.270;16.716;2022-10-31T07:16:05;76802.22;;;18.16;94.76
48555;BME280;34336;48.270;16.716;2022-10-31T07:18:34;76798.38;;;18.16;94.64
48555;BME280;34336;48.270;16.716;2022-10-31T07:21:01;76796.44;;;18.16;94.73
48555;BME280;34336;48.270;16.716;2022-10-31T07:23:28;76786.81;;;18.16;94.83
48555;BME280;34336;48.270;16.716;2022-10-31T07:26:13;76790.66;;;18.16;94.79
48555;BME280;34336;48.270;16.716;2022-10-31T07:28:45;76788.75;;;18.16;94.66
48555;BME280;34336;48.270;16.716;2022-10-31T07:31:12;76790.66;;;18.16;94.57
48555;BME280;34336;48.270;16.716;2022-10-31T07:33:39;76790.66;;;18.16;94.72
48555;BME280;34336;48.270;16.716;2022-10-31T07:36:26;76782.97;;;18.16;94.35
48555;BME280;34336;48.270;16.716;2022-10-31T07:38:56;76784.88;;;18.16;94.54
48555;BME280;34336;48.270;16.716;2022-10-31T07:41:24;76786.81;;;18.16;94.40
48555;BME280;34336;48.270;16.716;2022-10-31T07:43:52;76777.19;;;18.16;94.41
48555;BME280;34336;48.270;16.716;2022-10-31T07:46:42;76767.53;;;18.16;94.03
48555;BME280;34336;48.270;16.716;2022-10-31T07:49:34;76771.41;;;18.16;94.03
48555;BME280;34336;48.270;16.716;2022-10-31T07:52:20;76767.53;;;18.16;93.47
48555;BME280;34336;48.270;16.716;2022-10-31T07:55:10;76759.84;;;18.16;93.41
48555;BME280;34336;48.270;16.716;2022-10-31T07:57:36;76761.75;;;18.16;92.98
48555;BME280;34336;48.270;16.716;2022-10-31T08:00:05;76757.91;;;18.16;92.77
48555;BME280;34336;48.270;16.716;2022-10-31T08:02:40;76748.28;;;18.16;92.85
48555;BME280;34336;48.270;16.716;2022-10-31T08:05:44;76740.56;;;18.16;92.45
48555;BME280;34336;48.270;16.716;2022-10-31T08:08:32;76732.84;;;18.16;92.51
48555;BME280;34336;48.270;16.716;2022-10-31T08:11:04;76725.16;;;18.16;92.25
48555;BME280;34336;48.270;16.716;2022-10-31T08:13:31;76715.50;;;18.16;92.01
48555;BME280;34336;48.270;16.716;2022-10-31T08:15:58;76717.44;;;18.16;91.78
48555;BME280;34336;48.270;16.716;2022-10-31T08:18:32;76725.16;;;18.16;91.07
48555;BME280;34336;48.270;16.716;2022-10-31T08:20:59;76727.06;;;18.16;90.68
48555;BME280;34336;48.270;16.716;2022-10-31T08:23:25;76725.16;;;18.16;90.29
48555;BME280;34336;48.270;16.716;2022-10-31T08:25:53;76729.00;;;18.16;89.69
48555;BME280;34336;48.270;16.716;2022-10-31T08:28:22;76727.06;;;18.16;89.39
48555;BME280;34336;48.270;16.716;2022-10-31T08:30:50;76740.56;;;18.16;89.19
48555;BME280;34336;48.270;16.716;2022-10-31T08:33:56;76717.44;;;18.16;88.47
48555;BME280;34336;48.270;16.716;2022-10-31T08:36:42;76702.03;;;18.16;88.78
48555;BME280;34336;48.270;16.716;2022-10-31T08:39:17;76715.50;;;18.16;88.41
48555;BME280;34336;48.270;16.716;2022-10-31T08:41:43;76713.59;;;18.16;87.77
48555;BME280;34336;48.270;16.716;2022-10-31T08:44:12;76717.44;;;18.16;87.70
48555;BME280;34336;48.270;16.716;2022-10-31T08:46:38;76717.44;;;18.16;87.11
48555;BME280;34336;48.270;16.716;2022-10-31T08:49:05;76725.16;;;18.16;87.46
48555;BME280;34336;48.270;16.716;2022-10-31T08:51:32;76730.94;;;18.16;87.67
48555;BME280;34336;48.270;16.716;2022-10-31T08:53:59;76725.16;;;18.16;87.77
48555;BME280;34336;48.270;16.716;2022-10-31T08:56:32;76717.44;;;18.16;87.28
48555;BME280;34336;48.270;16.716;2022-10-31T08:58:59;76725.16;;;18.16;87.09
48555;BME280;34336;48.270;16.716;2022-10-31T09:01:45;76725.16;;;18.16;87.49
48555;BME280;34336;48.270;16.716;2022-10-31T09:04:11;76711.66;;;18.16;87.28
48555;BME280;34336;48.270;16.716;2022-10-31T09:06:38;76713.59;;;18.16;87.39
48555;BME280;34336;48.270;16.716;2022-10-31T09:09:25;76721.28;;;18.16;87.66
48555;BME280;34336;48.270;16.716;2022-10-31T09:11:52;76717.44;;;18.16;87.54
48555;BME280;34336;48.270;16.716;2022-10-31T09:14:53;76719.38;;;18.16;87.63
48555;BME280;34336;48.270;16.716;2022-10-31T09:17:32;76709.72;;;18.16;87.52
48555;BME280;34336;48.270;16.716;2022-10-31T09:20:18;76711.66;;;18.16;87.89
48555;BME280;34336;48.270;16.716;2022-10-31T09:22:45;76711.66;;;18.16;87.86
48555;BME280;34336;48.270;16.716;2022-10-31T09:25:12;76717.44;;;18.16;88.21
48555;BME280;34336;48.270;16.716;2022-10-31T09:27:41;76709.72;;;18.16;87.88
48555;BME280;34336;48.270;16.716;2022-10-31T09:30:08;76702.03;;;18.16;87.47
48555;BME280;34336;48.270;16.716;2022-10-31T09:32:35;76711.66;;;18.16;86.98
48555;BME280;34336;48.270;16.716;2022-10-31T09:35:04;76709.72;;;18.16;86.71
48555;BME280;34336;48.270;16.716;2022-10-31T09:37:31;76703.94;;;18.16;86.30
48555;BME280;34336;48.270;16.716;2022-10-31T09:39:59;76702.03;;;18.16;86.25
48555;BME280;34336;48.270;16.716;2022-10-31T09:42:51;76711.66;;;18.16;86.42
48555;BME280;34336;48.270;16.716;2022-10-31T09:45:39;76694.31;;;18.16;86.71
48555;BME280;34336;48.270;16.716;2022-10-31T09:48:29;76696.25;;;18.16;86.27
48555;BME280;34336;48.270;16.716;2022-10-31T09:51:29;76694.31;;;18.16;86.15
48555;BME280;34336;48.270;16.716;2022-10-31T09:54:22;76690.47;;;18.16;85.85
48555;BME280;34336;48.270;16.716;2022-10-31T09:56:52;76678.91;;;18.16;85.77
48555;BME280;34336;48.270;16.716;2022-10-31T09:59:24;76669.25;;;18.16;85.47
48555;BME280;34336;48.270;16.716;2022-10-31T10:07:17;76659.63;;;18.16;85.16
48555;BME280;34336;48.270;16.716;2022-10-31T10:09:45;76640.34;;;18.16;84.93
48555;BME280;34336;48.270;16.716;2022-10-31T10:25:40;76659.63;;;18.16;84.11
48555;BME280;34336;48.270;16.716;2022-10-31T10:30:35;76653.84;;;18.16;84.61
48555;BME280;34336;48.270;16.716;2022-10-31T10:33:13;76659.63;;;18.16;84.87
48555;BME280;34336;48.270;16.716;2022-10-31T10:35:42;76648.06;;;18.16;85.21
48555;BME280;34336;48.270;16.716;2022-10-31T10:38:22;76640.34;;;18.16;84.49
48555;BME280;34336;48.270;16.716;2022-10-31T10:40:52;76634.56;;;18.16;84.31
48555;BME280;34336;48.270;16.716;2022-10-31T10:46:00;76636.50;;;18.16;84.11
48555;BME280;34336;48.270;16.716;2022-10-31T10:51:22;76621.09;;;18.16;83.66
48555;BME280;34336;48.270;16.716;2022-10-31T10:59:40;76621.09;;;18.16;82.84
48555;BME280;34336;48.270;16.716;2022-10-31T11:02:17;76619.16;;;18.16;83.06
48555;BME280;34336;48.270;16.716;2022-10-31T11:04:44;76613.38;;;18.16;83.11
48555;BME280;34336;48.270;16.716;2022-10-31T11:07:14;76615.31;;;18.16;83.32
48555;BME280;34336;48.270;16.716;2022-10-31T11:09:40;76621.09;;;18.16;83.30
48555;BME280;34336;48.270;16.716;2022-10-31T11:12:11;76621.09;;;18.16;82.63
48555;BME280;34336;48.270;16.716;2022-10-31T11:15:25;76619.16;;;18.16;82.88
48555;BME280;34336;48.270;16.716;2022-10-31T11:17:33;76617.22;;;18.16;83.26
48555;BME280;34336;48.270;16.716;2022-10-31T11:20:04;76609.53;;;18.16;83.03
48555;BME280;34336;48.270;16.716;2022-10-31T11:22:31;76609.53;;;18.16;82.82
48555;BME280;34336;48.270;16.716;2022-10-31T11:24:58;76605.66;;;18.16;82.92
48555;BME280;34336;48.270;16.716;2022-10-31T11:27:25;76597.97;;;18.16;82.81
48555;BME280;34336;48.270;16.716;2022-10-31T11:29:52;76594.09;;;18.16;83.15
48555;BME280;34336;48.270;16.716;2022-10-31T11:32:26;76594.09;;;18.16;82.74
48555;BME280;34336;48.270;16.716;2022-10-31T11:34:57;76586.41;;;18.16;82.75
48555;BME280;34336;48.270;16.716;2022-10-31T11:37:32;76590.25;;;18.16;82.51
48555;BME280;34336;48.270;16.716;2022-10-31T11:40:04;76609.53;;;18.16;82.44
48555;BME280;34336;48.270;16.716;2022-10-31T11:42:36;76605.66;;;18.16;82.68
48555;BME280;34336;48.270;16.716;2022-10-31T11:45:46;76605.66;;;18.16;82.02
48555;BME280;34336;48.270;16.716;2022-10-31T11:47:53;76605.66;;;18.16;82.60
48555;BME280;34336;48.270;16.716;2022-10-31T11:50:35;76601.81;;;18.16;82.81
48555;BME280;34336;48.270;16.716;2022-10-31T11:53:03;76597.97;;;18.16;82.44
48555;BME280;34336;48.270;16.716;2022-10-31T11:55:34;76605.66;;;18.16;82.89
48555;BME280;34336;48.270;16.716;2022-10-31T11:58:02;76601.81;;;18.16;82.67
48555;BME280;34336;48.270;16.716;2022-10-31T12:00:30;76586.41;;;18.16;82.47
48555;BME280;34336;48.270;16.716;2022-10-31T12:06:01;76582.53;;;18.16;82.49
48555;BME280;34336;48.270;16.716;2022-10-31T12:08:32;76584.47;;;18.16;82.46
48555;BME280;34336;48.270;16.716;2022-10-31T12:19:11;76586.41;;;18.16;83.83
48555;BME280;34336;48.270;16.716;2022-10-31T12:21:46;76580.63;;;18.16;84.30
48555;BME280;34336;48.270;16.716;2022-10-31T12:24:22;76580.63;;;18.16;84.13
48555;BME280;34336;48.270;16.716;2022-10-31T12:27:04;76578.69;;;18.16;83.97
48555;BME280;34336;48.270;16.716;2022-10-31T12:32:08;76594.09;;;18.16;83.90
48555;BME280;34336;48.270;16.716;2022-10-31T12:45:31;76597.97;;;18.16;85.29
48555;BME280;34336;48.270;16.716;2022-10-31T12:59:13;76607.59;;;18.16;85.43
48555;BME280;34336;48.270;16.716;2022-10-31T13:01:47;76599.88;;;18.16;85.00
48555;BME280;34336;48.270;16.716;2022-10-31T13:04:20;76605.66;;;18.16;85.51
48555;BME280;34336;48.270;16.716;2022-10-31T13:06:53;76605.66;;;18.16;85.76
48555;BME280;34336;48.270;16.716;2022-10-31T13:09:25;76594.09;;;18.16;86.28
48555;BME280;34336;48.270;16.716;2022-10-31T13:11:54;76586.41;;;18.16;86.22
48555;BME280;34336;48.270;16.716;2022-10-31T13:14:55;76574.84;;;18.16;86.21
48555;BME280;34336;48.270;16.716;2022-10-31T13:17:18;76576.75;;;18.16;85.96
48555;BME280;34336;48.270;16.716;2022-10-31T13:19:48;76570.97;;;18.16;85.99
48555;BME280;34336;48.270;16.716;2022-10-31T13:22:16;76570.97;;;18.16;85.80
48555;BME280;34336;48.270;16.716;2022-10-31T13:24:54;76563.28;;;18.16;85.63
48555;BME280;34336;48.270;16.716;2022-10-31T13:27:43;76565.19;;;18.16;85.61
48555;BME280;34336;48.270;16.716;2022-10-31T13:30:18;76570.97;;;18.16;85.31
48555;BME280;34336;48.270;16.716;2022-10-31T13:35:19;76605.66;;;18.16;86.14
48555;BME280;34336;48.270;16.716;2022-10-31T13:37:57;76599.88;;;18.16;87.32
48555;BME280;34336;48.270;16.716;2022-10-31T13:40:37;76611.44;;;18.16;87.89
48555;BME280;34336;48.270;16.716;2022-10-31T13:43:27;76609.53;;;18.16;88.41
48555;BME280;34336;48.270;16.716;2022-10-31T13:45:57;76607.59;;;18.16;88.70
48555;BME280;34336;48.270;16.716;2022-10-31T13:50:57;76594.09;;;18.16;88.94
48555;BME280;34336;48.270;16.716;2022-10-31T13:53:35;76603.75;;;18.16;88.89
48555;BME280;34336;48.270;16.716;2022-10-31T13:56:05;76611.44;;;18.16;88.99
48555;BME280;34336;48.270;16.716;2022-10-31T13:58:37;76617.22;;;18.16;89.45
48555;BME280;34336;48.270;16.716;2022-10-31T14:03:35;76626.88;;;18.16;89.69
48555;BME280;34336;48.270;16.716;2022-10-31T14:06:22;76640.34;;;18.16;89.87
48555;BME280;34336;48.270;16.716;2022-10-31T14:08:50;76640.34;;;18.16;90.13
48555;BME280;34336;48.270;16.716;2022-10-31T14:11:22;76648.06;;;18.16;90.59
48555;BME280;34336;48.270;16.716;2022-10-31T14:13:50;76644.22;;;18.16;90.68
48555;BME280;34336;48.270;16.716;2022-10-31T14:18:59;76655.78;;;18.16;90.85
48555;BME280;34336;48.270;16.716;2022-10-31T14:21:28;76644.22;;;18.16;91.10
48555;BME280;34336;48.270;16.716;2022-10-31T14:23:56;76650.00;;;18.16;91.11
48555;BME280;34336;48.270;16.716;2022-10-31T14:28:50;76650.00;;;18.16;91.21
48555;BME280;34336;48.270;16.716;2022-10-31T14:36:48;76653.84;;;18.16;91.93
48555;BME280;34336;48.270;16.716;2022-10-31T14:39:18;76657.69;;;18.16;91.70
48555;BME280;34336;48.270;16.716;2022-10-31T14:42:09;76663.47;;;18.16;91.78
48555;BME280;34336;48.270;16.716;2022-10-31T14:44:45;76669.25;;;18.16;91.85
48555;BME280;34336;48.270;16.716;2022-10-31T14:47:20;76678.91;;;18.16;91.85
48555;BME280;34336;48.270;16.716;2022-10-31T14:52:17;76680.81;;;18.16;92.38
48555;BME280;34336;48.270;16.716;2022-10-31T14:54:50;76684.69;;;18.16;92.66
48555;BME280;34336;48.270;16.716;2022-10-31T14:57:21;76680.81;;;18.16;92.67
48555;BME280;34336;48.270;16.716;2022-10-31T14:59:50;76686.59;;;18.16;92.74
48555;BME280;34336;48.270;16.716;2022-10-31T15:02:19;76686.59;;;18.16;92.72
48555;BME280;34336;48.270;16.716;2022-10-31T15:04:51;76703.94;;;18.16;93.03
48555;BME280;34336;48.270;16.716;2022-10-31T15:07:23;76703.94;;;18.16;93.01
48555;BME280;34336;48.270;16.716;2022-10-31T15:12:24;76698.16;;;18.16;93.72
48555;BME280;34336;48.270;16.716;2022-10-31T15:14:55;76705.88;;;18.16;93.48
48555;BME280;34336;48.270;16.716;2022-10-31T15:17:22;76700.09;;;18.16;93.67
48555;BME280;34336;48.270;16.716;2022-10-31T15:19:53;76707.81;;;18.16;93.95
48555;BME280;34336;48.270;16.716;2022-10-31T15:22:27;76713.59;;;18.16;94.04